Time;durP1;ratioP1;P1;durP2;ratioP2;P2;SDS_P1;SDS_P2;PMS_P1;PMS_P2;Temp;Humidity;BMP_temperature;BMP_pressure;BME280_temperature;BME280_humidity;BME280_pressure;Samples;Min_cycle;Max_cycle;Signal;HPM_P1;HPM_P2
2022/02/12 00:00:24;;;;;;;30.83;24.00;;;0.10;99.90;;;;;;5000397;28;20503;-70
2022/02/12 00:02:53;;;;;;;35.13;24.80;;;0.00;99.90;;;;;;5002724;28;20469;-70
2022/02/12 00:05:21;;;;;;;32.90;25.40;;;-0.10;99.90;;;;;;5003975;28;20771;-70
2022/02/12 00:07:48;;;;;;;29.87;23.50;;;0.00;99.90;;;;;;5000004;28;20475;-71
2022/02/12 00:10:16;;;;;;;26.50;23.70;;;0.00;99.90;;;;;;5001152;28;20490;-70
2022/02/12 00:12:43;;;;;;;26.10;23.60;;;0.10;99.90;;;;;;4997139;28;20475;-70
2022/02/12 00:15:11;;;;;;;28.93;25.23;;;0.10;99.90;;;;;;5003453;28;20504;-70
2022/02/12 00:17:37;;;;;;;35.60;23.77;;;0.10;99.90;;;;;;5001133;28;20954;-70
2022/02/12 00:20:06;;;;;;;29.37;23.27;;;0.10;99.90;;;;;;4999204;28;20564;-70
2022/02/12 00:22:33;;;;;;;31.63;24.30;;;0.10;99.90;;;;;;4996682;28;20994;-69
2022/02/12 00:25:00;;;;;;;28.80;24.20;;;0.10;99.90;;;;;;4993792;28;20495;-69
2022/02/12 00:27:29;;;;;;;27.87;24.27;;;0.10;99.90;;;;;;5000009;28;20477;-69
2022/02/12 00:29:56;;;;;;;34.87;24.00;;;0.00;99.90;;;;;;4999591;28;20464;-70
2022/02/12 00:32:23;;;;;;;27.00;24.60;;;0.00;99.90;;;;;;4995696;28;20480;-69
2022/02/12 00:34:51;;;;;;;36.70;24.07;;;-0.10;99.90;;;;;;4997823;28;20468;-69
2022/02/12 00:37:18;;;;;;;25.27;22.67;;;-0.20;99.90;;;;;;5004097;28;20460;-69
2022/02/12 00:39:45;;;;;;;29.20;24.13;;;-0.30;99.90;;;;;;5004386;28;20468;-70
2022/02/12 00:42:12;;;;;;;23.40;21.20;;;-0.40;99.90;;;;;;5001988;28;20829;-70
2022/02/12 00:44:41;;;;;;;22.43;20.50;;;-0.60;99.90;;;;;;5003099;28;20479;-70
2022/02/12 00:47:08;;;;;;;27.00;19.83;;;-0.70;99.90;;;;;;4999252;28;20472;-70
2022/02/12 00:49:35;;;;;;;21.90;20.10;;;-0.80;99.90;;;;;;4996022;28;20542;-69
2022/02/12 00:52:03;;;;;;;23.50;21.40;;;-0.90;99.90;;;;;;5000574;28;20459;-70
2022/02/12 00:54:32;;;;;;;31.37;20.73;;;-1.00;99.90;;;;;;4999917;28;20467;-70
2022/02/12 00:57:00;;;;;;;22.13;20.13;;;-1.20;99.90;;;;;;5003805;28;20474;-70
2022/02/12 00:59:27;;;;;;;26.03;21.30;;;-1.20;99.90;;;;;;5005327;28;20466;-69
2022/02/12 01:01:56;;;;;;;22.73;20.43;;;-1.30;99.90;;;;;;4994243;28;20463;-71
2022/02/12 01:04:23;;;;;;;22.63;20.53;;;-1.40;99.90;;;;;;4999047;28;20626;-71
2022/02/12 01:06:50;;;;;;;22.27;20.30;;;-1.50;99.90;;;;;;4998606;28;20853;-70
2022/02/12 01:09:17;;;;;;;23.07;20.17;;;-1.40;99.90;;;;;;5001895;28;20478;-70
2022/02/12 01:11:45;;;;;;;21.60;19.23;;;-1.40;99.90;;;;;;5000057;28;20917;-70
2022/02/12 01:14:13;;;;;;;28.93;20.40;;;-1.50;99.90;;;;;;4999882;28;20842;-70
2022/02/12 01:16:40;;;;;;;27.43;21.00;;;-1.50;99.90;;;;;;5000891;28;20977;-71
2022/02/12 01:19:09;;;;;;;24.73;20.47;;;-1.60;99.90;;;;;;4996157;28;20535;-70
2022/02/12 01:21:36;;;;;;;23.90;21.37;;;-1.70;99.90;;;;;;4998752;28;20459;-70
2022/02/12 01:24:03;;;;;;;23.67;21.23;;;-1.60;99.90;;;;;;5000973;28;20493;-70
2022/02/12 01:26:30;;;;;;;26.23;20.37;;;-1.50;99.90;;;;;;5000737;28;20472;-70
2022/02/12 01:28:57;;;;;;;26.80;21.37;;;-1.40;99.90;;;;;;4996957;28;20467;-71
2022/02/12 01:31:24;;;;;;;24.07;20.07;;;-1.40;99.90;;;;;;5020106;28;20531;-71
2022/02/12 01:33:51;;;;;;;24.17;21.60;;;-1.40;99.90;;;;;;4994066;28;20466;-70
2022/02/12 01:36:19;;;;;;;23.33;20.90;;;-1.40;99.90;;;;;;4992927;28;20460;-70
2022/02/12 01:38:46;;;;;;;26.43;20.50;;;-1.30;99.90;;;;;;4991182;28;21005;-71
2022/02/12 01:41:13;;;;;;;30.07;20.67;;;-1.30;99.90;;;;;;5004320;28;20470;-72
2022/02/12 01:43:40;;;;;;;28.03;21.93;;;-1.40;99.90;;;;;;4996439;28;20556;-72
2022/02/12 01:46:08;;;;;;;36.40;20.10;;;-1.40;99.90;;;;;;4999010;28;20504;-72
2022/02/12 01:48:38;;;;;;;28.50;20.73;;;-1.50;99.90;;;;;;5001154;28;20974;-72
2022/02/12 01:51:06;;;;;;;24.13;21.90;;;-1.50;99.90;;;;;;4997047;28;20993;-72
2022/02/12 01:53:34;;;;;;;36.40;21.07;;;-1.60;99.90;;;;;;4996284;28;20467;-71
2022/02/12 01:56:01;;;;;;;23.27;20.77;;;-1.60;99.90;;;;;;5004525;28;20474;-71
2022/02/12 01:58:28;;;;;;;23.07;20.57;;;-1.60;99.90;;;;;;5001059;28;20458;-71
2022/02/12 02:00:55;;;;;;;31.23;21.13;;;-1.60;99.90;;;;;;4999090;28;20485;-72
2022/02/12 02:03:23;;;;;;;22.73;20.00;;;-1.70;99.90;;;;;;4998364;28;20965;-71
2022/02/12 02:05:50;;;;;;;41.07;21.13;;;-1.80;99.90;;;;;;4998883;28;20493;-72
2022/02/12 02:08:17;;;;;;;37.00;20.17;;;-1.80;99.90;;;;;;4995249;28;20468;-72
2022/02/12 02:10:46;;;;;;;23.70;21.20;;;-1.80;99.90;;;;;;4998314;28;20840;-72
2022/02/12 02:13:25;;;;;;;27.87;20.40;;;-1.80;99.90;;;;;;4999613;28;20471;-72
2022/02/12 02:15:52;;;;;;;22.60;20.50;;;-1.90;99.90;;;;;;5006125;28;20468;-72
2022/02/12 02:18:19;;;;;;;30.13;20.60;;;-1.90;99.90;;;;;;5002499;28;20964;-71
2022/02/12 02:20:46;;;;;;;22.87;19.30;;;-2.00;99.90;;;;;;4994736;28;20467;-71
2022/02/12 02:23:14;;;;;;;29.50;20.60;;;-1.90;99.90;;;;;;4998528;28;20470;-71
2022/02/12 02:25:41;;;;;;;38.97;20.87;;;-1.90;99.90;;;;;;4999784;28;20868;-71
2022/02/12 02:28:08;;;;;;;38.83;21.77;;;-2.00;99.90;;;;;;5000333;28;20819;-72
2022/02/12 02:30:36;;;;;;;30.07;20.10;;;-2.00;99.90;;;;;;4999221;28;20456;-72
2022/02/12 02:33:03;;;;;;;25.30;20.30;;;-2.00;99.90;;;;;;4997801;28;21046;-71
2022/02/12 02:35:30;;;;;;;33.53;19.40;;;-2.00;99.90;;;;;;5000366;28;20970;-72
2022/02/12 02:38:05;;;;;;;45.73;22.70;;;-2.00;99.90;;;;;;4997281;28;20463;-71
2022/02/12 02:40:33;;;;;;;48.80;20.10;;;-2.00;99.90;;;;;;5003892;28;20495;-72
2022/02/12 02:43:00;;;;;;;21.73;19.40;;;-1.90;99.90;;;;;;4991162;28;20475;-71
2022/02/12 02:45:28;;;;;;;41.87;20.83;;;-1.80;99.90;;;;;;4991570;28;20516;-71
2022/02/12 02:47:59;;;;;;;27.30;21.20;;;-1.70;99.90;;;;;;4997174;28;20472;-71
2022/02/12 02:56:08;;;;;;;24.30;19.43;;;-1.60;99.90;;;;;;4993845;28;20469;-71
2022/02/12 02:58:36;;;;;;;21.23;19.00;;;-1.60;99.90;;;;;;4991964;28;21059;-72
2022/02/12 03:01:06;;;;;;;22.77;19.93;;;-1.70;99.90;;;;;;4995666;28;20473;-72
2022/02/12 03:03:34;;;;;;;31.43;21.47;;;-1.70;99.90;;;;;;4998593;28;20487;-71
2022/02/12 03:06:01;;;;;;;50.33;22.23;;;-1.70;99.90;;;;;;5000184;28;20497;-71
2022/02/12 03:08:29;;;;;;;43.77;20.80;;;-1.70;99.90;;;;;;4996399;28;20464;-71
2022/02/12 03:10:58;;;;;;;29.47;20.17;;;-1.60;99.90;;;;;;5002236;28;20463;-71
2022/02/12 03:13:25;;;;;;;26.90;20.47;;;-1.60;99.90;;;;;;4999008;28;20535;-71
2022/02/12 03:15:53;;;;;;;23.23;20.80;;;-1.60;99.90;;;;;;4996554;28;20464;-71
2022/02/12 03:18:21;;;;;;;38.60;21.97;;;-1.60;99.90;;;;;;4997326;28;20473;-71
2022/02/12 03:20:47;;;;;;;22.97;20.60;;;-1.60;99.90;;;;;;5015872;28;20479;-71
2022/02/12 03:23:14;;;;;;;32.60;21.67;;;-1.60;99.90;;;;;;4997634;28;20479;-71
2022/02/12 03:25:41;;;;;;;32.17;21.57;;;-1.50;99.90;;;;;;4993761;28;20493;-71
2022/02/12 03:28:09;;;;;;;29.70;19.83;;;-1.50;99.90;;;;;;4997639;28;20464;-71
2022/02/12 03:30:40;;;;;;;29.03;20.77;;;-1.50;99.90;;;;;;4993085;28;20468;-71
2022/02/12 03:33:08;;;;;;;31.97;21.40;;;-1.40;99.90;;;;;;5000006;28;20468;-71
2022/02/12 03:35:36;;;;;;;30.87;20.37;;;-1.50;99.90;;;;;;4996073;28;20486;-71
2022/02/12 03:38:11;;;;;;;35.03;20.47;;;-1.40;99.90;;;;;;4999067;28;20473;-71
2022/02/12 03:40:39;;;;;;;31.60;20.40;;;-1.40;99.90;;;;;;4996598;28;20477;-71
2022/02/12 03:43:06;;;;;;;40.43;22.03;;;-1.40;99.90;;;;;;4996459;28;20480;-71
2022/02/12 03:45:35;;;;;;;30.23;20.37;;;-1.50;99.90;;;;;;4991232;28;21109;-71
2022/02/12 03:48:03;;;;;;;34.50;19.70;;;-1.50;99.90;;;;;;5000072;28;20464;-71
2022/02/12 03:50:31;;;;;;;28.30;20.93;;;-1.40;99.90;;;;;;5004396;28;20865;-71
2022/02/12 03:53:00;;;;;;;22.63;20.43;;;-1.40;99.90;;;;;;5000762;28;20467;-71
2022/02/12 03:55:27;;;;;;;26.57;20.77;;;-1.50;99.90;;;;;;4996297;28;20467;-71
2022/02/12 03:57:56;;;;;;;32.53;20.80;;;-1.50;99.90;;;;;;4994041;28;20455;-71
2022/02/12 04:00:25;;;;;;;34.47;20.53;;;-1.50;99.90;;;;;;4995133;28;20897;-71
2022/02/12 04:02:53;;;;;;;36.03;20.50;;;-1.50;99.90;;;;;;5002337;28;20616;-71
2022/02/12 04:05:21;;;;;;;36.53;20.83;;;-1.50;99.90;;;;;;5000584;28;20488;-71
2022/02/12 04:07:48;;;;;;;32.03;19.80;;;-1.50;99.90;;;;;;4996678;28;20473;-71
2022/02/12 04:10:16;;;;;;;22.27;19.33;;;-1.50;99.90;;;;;;4991231;28;21012;-71
2022/02/12 04:12:45;;;;;;;34.70;21.80;;;-1.40;99.90;;;;;;5000921;28;20477;-71
2022/02/12 04:15:13;;;;;;;30.23;20.00;;;-1.40;99.90;;;;;;4997232;28;21007;-71
2022/02/12 04:17:40;;;;;;;25.30;19.30;;;-1.50;99.90;;;;;;4997557;28;20448;-71
2022/02/12 04:20:11;;;;;;;31.23;19.47;;;-1.50;99.90;;;;;;4993949;28;20920;-71
2022/02/12 04:22:40;;;;;;;22.40;19.30;;;-1.50;99.90;;;;;;4995113;28;20459;-71
2022/02/12 04:25:08;;;;;;;31.97;21.20;;;-1.50;99.90;;;;;;4991714;28;20999;-70
2022/02/12 04:27:35;;;;;;;24.47;20.20;;;-1.50;99.90;;;;;;4995927;28;20508;-70
2022/02/12 04:30:03;;;;;;;36.53;20.67;;;-1.40;99.90;;;;;;4998484;28;20467;-70
2022/02/12 04:32:30;;;;;;;28.70;20.33;;;-1.40;99.90;;;;;;4993963;28;20470;-70
2022/02/12 04:34:59;;;;;;;22.23;19.73;;;-1.30;99.90;;;;;;4996891;28;20473;-70
2022/02/12 04:37:27;;;;;;;22.50;20.00;;;-1.30;99.90;;;;;;4999625;28;20461;-70
2022/02/12 04:39:54;;;;;;;37.40;20.30;;;-1.30;99.90;;;;;;4998434;28;20461;-70
2022/02/12 04:42:21;;;;;;;21.43;19.43;;;-1.40;99.90;;;;;;5000474;28;20467;-70
2022/02/12 04:44:50;;;;;;;23.00;20.60;;;-1.40;99.90;;;;;;5006260;28;21073;-70
2022/02/12 04:47:18;;;;;;;40.30;20.37;;;-1.40;99.90;;;;;;5003970;28;20858;-70
2022/02/12 04:49:46;;;;;;;22.30;20.00;;;-1.40;99.90;;;;;;4994262;28;20820;-70
2022/02/12 04:52:16;;;;;;;32.13;18.23;;;-1.40;99.90;;;;;;4997186;28;20464;-70
2022/02/12 04:54:44;;;;;;;28.27;18.97;;;-1.50;99.90;;;;;;5010132;28;20478;-70
2022/02/12 04:57:12;;;;;;;39.90;20.97;;;-1.50;99.90;;;;;;5001482;28;20975;-71
2022/02/12 04:59:39;;;;;;;27.30;19.60;;;-1.50;99.90;;;;;;4987569;28;20460;-71
2022/02/12 05:02:06;;;;;;;24.20;20.40;;;-1.50;99.90;;;;;;4976543;28;21094;-71
2022/02/12 05:04:33;;;;;;;28.87;21.70;;;-1.50;99.90;;;;;;4976440;28;20462;-71
2022/02/12 05:07:00;;;;;;;21.80;19.60;;;-1.50;99.90;;;;;;4976734;28;20482;-71
2022/02/12 05:09:27;;;;;;;33.47;19.40;;;-1.50;99.90;;;;;;4977340;28;21033;-71
2022/02/12 05:11:55;;;;;;;26.37;18.93;;;-1.50;99.90;;;;;;4976946;28;20537;-70
2022/02/12 05:14:23;;;;;;;32.43;19.03;;;-1.50;99.90;;;;;;4977266;28;20526;-71
2022/02/12 05:16:50;;;;;;;28.93;20.07;;;-1.50;99.90;;;;;;4978733;28;20866;-71
2022/02/12 05:19:17;;;;;;;26.30;19.70;;;-1.40;99.90;;;;;;4978226;28;21503;-71
2022/02/12 05:21:44;;;;;;;21.37;19.13;;;-1.50;99.90;;;;;;4977159;28;20464;-71
2022/02/12 05:24:11;;;;;;;23.40;18.40;;;-1.50;99.90;;;;;;4976358;28;20462;-71
2022/02/12 05:26:39;;;;;;;30.50;19.93;;;-1.50;99.90;;;;;;4977118;28;20490;-70
2022/02/12 05:29:07;;;;;;;26.73;19.87;;;-1.60;99.90;;;;;;4977008;28;20458;-71
2022/02/12 05:31:34;;;;;;;24.83;18.83;;;-1.60;99.90;;;;;;4976866;28;20475;-71
2022/02/12 05:34:00;;;;;;;26.53;19.57;;;-1.60;99.90;;;;;;4976530;28;20473;-71
2022/02/12 05:36:27;;;;;;;29.50;18.53;;;-1.60;99.90;;;;;;4977041;28;20959;-70
2022/02/12 05:38:54;;;;;;;28.60;19.80;;;-1.60;99.90;;;;;;4977114;28;20842;-70
2022/02/12 05:41:21;;;;;;;25.60;19.60;;;-1.70;99.90;;;;;;4977152;28;20481;-71
2022/02/12 05:43:49;;;;;;;27.77;19.43;;;-1.60;99.90;;;;;;4976149;28;20989;-71
2022/02/12 05:46:17;;;;;;;21.33;19.27;;;-1.70;99.90;;;;;;4976756;28;20521;-71
2022/02/12 05:48:45;;;;;;;22.33;19.43;;;-1.60;99.90;;;;;;4976630;28;20468;-70
2022/02/12 05:51:12;;;;;;;21.10;19.23;;;-1.60;99.90;;;;;;4976419;28;20562;-70
2022/02/12 05:53:40;;;;;;;36.00;18.93;;;-1.60;99.90;;;;;;4975483;28;20462;-71
2022/02/12 05:56:06;;;;;;;42.30;19.63;;;-1.60;99.90;;;;;;4975122;28;20473;-71
2022/02/12 05:58:33;;;;;;;21.07;18.10;;;-1.60;99.90;;;;;;4975464;28;20477;-71
2022/02/12 06:01:00;;;;;;;20.27;18.50;;;-1.70;99.90;;;;;;4975128;28;20825;-70
2022/02/12 06:03:29;;;;;;;21.27;19.00;;;-1.60;99.90;;;;;;4976635;28;21134;-70
2022/02/12 06:05:56;;;;;;;23.67;18.43;;;-1.60;99.90;;;;;;4974538;28;20500;-70
2022/02/12 06:08:23;;;;;;;31.90;19.57;;;-1.60;99.90;;;;;;4975993;28;20825;-70
2022/02/12 06:10:51;;;;;;;21.10;18.77;;;-1.60;99.90;;;;;;4975268;28;20779;-71
2022/02/12 06:13:19;;;;;;;22.03;18.50;;;-1.60;99.90;;;;;;4976571;28;20962;-71
2022/02/12 06:15:46;;;;;;;20.97;18.80;;;-1.60;99.90;;;;;;4975670;28;20528;-70
2022/02/12 06:18:13;;;;;;;33.23;19.17;;;-1.60;99.90;;;;;;4976304;28;20968;-70
2022/02/12 06:20:41;;;;;;;29.37;19.53;;;-1.70;99.90;;;;;;4976423;28;20467;-71
2022/02/12 06:23:08;;;;;;;21.47;18.30;;;-1.70;99.90;;;;;;4975783;28;20516;-71
2022/02/12 06:25:36;;;;;;;31.33;18.70;;;-1.70;99.90;;;;;;4976384;28;20496;-70
2022/02/12 06:28:04;;;;;;;25.90;18.37;;;-1.70;99.90;;;;;;4976534;28;20462;-70
2022/02/12 06:30:31;;;;;;;27.50;19.30;;;-1.70;99.90;;;;;;4973098;28;20981;-70
2022/02/12 06:32:59;;;;;;;21.57;18.23;;;-1.70;99.90;;;;;;4976899;28;21059;-70
2022/02/12 06:35:27;;;;;;;23.47;17.97;;;-1.70;99.90;;;;;;4977165;28;20463;-70
2022/02/12 06:37:56;;;;;;;22.80;18.93;;;-1.70;99.90;;;;;;4975924;28;20503;-70
2022/02/12 06:40:24;;;;;;;26.23;18.20;;;-1.70;99.90;;;;;;4976482;28;20473;-71
2022/02/12 06:42:51;;;;;;;20.80;18.80;;;-1.70;99.90;;;;;;4974049;28;20938;-70
2022/02/12 06:45:18;;;;;;;28.23;18.70;;;-1.60;99.90;;;;;;4976112;28;20469;-70
2022/02/12 06:47:45;;;;;;;31.23;19.33;;;-1.60;99.90;;;;;;4976758;28;20522;-70
2022/02/12 06:50:12;;;;;;;31.00;19.60;;;-1.60;99.90;;;;;;4975766;28;20481;-70
2022/02/12 06:52:39;;;;;;;24.47;18.20;;;-1.60;99.90;;;;;;4977399;28;21448;-70
2022/02/12 06:55:11;;;;;;;31.70;19.07;;;-1.50;99.90;;;;;;4973958;28;20494;-71
2022/02/12 06:57:38;;;;;;;22.00;19.57;;;-1.50;99.90;;;;;;4972866;28;20502;-70
2022/02/12 07:00:06;;;;;;;21.20;18.37;;;-1.50;99.90;;;;;;4972859;28;20481;-70
2022/02/12 07:02:33;;;;;;;26.70;18.83;;;-1.50;99.90;;;;;;4972346;28;20476;-70
2022/02/12 07:05:00;;;;;;;23.53;19.80;;;-1.40;99.90;;;;;;4966862;28;20996;-70
2022/02/12 07:07:27;;;;;;;24.00;19.53;;;-1.40;99.90;;;;;;4969623;28;20502;-70
2022/02/12 07:09:54;;;;;;;43.57;19.97;;;-1.40;99.90;;;;;;4967955;28;20567;-71
2022/02/12 07:12:23;;;;;;;28.70;21.30;;;-1.40;99.90;;;;;;4970857;28;20459;-70
2022/02/12 07:14:49;;;;;;;20.53;18.40;;;-1.40;99.90;;;;;;4969099;28;20499;-70
2022/02/12 07:17:17;;;;;;;26.50;18.57;;;-1.30;99.90;;;;;;4969669;28;20457;-70
2022/02/12 07:19:44;;;;;;;21.87;19.63;;;-1.30;99.90;;;;;;4971337;28;20911;-70
2022/02/12 07:22:11;;;;;;;23.70;18.73;;;-1.20;99.90;;;;;;4972183;28;20466;-70
2022/02/12 07:24:38;;;;;;;29.27;18.83;;;-1.20;99.90;;;;;;4973071;28;20467;-70
2022/02/12 07:27:05;;;;;;;27.97;18.97;;;-1.20;99.90;;;;;;4970472;28;20537;-70
2022/02/12 07:29:33;;;;;;;22.00;19.73;;;-1.10;99.90;;;;;;4972192;28;20464;-70
2022/02/12 07:32:00;;;;;;;22.70;20.43;;;-1.10;99.90;;;;;;4973406;28;20477;-70
2022/02/12 07:34:27;;;;;;;26.73;19.10;;;-1.10;99.90;;;;;;4973658;28;20490;-70
2022/02/12 07:36:54;;;;;;;20.80;18.83;;;-1.00;99.90;;;;;;4974755;28;22854;-70
2022/02/12 07:39:21;;;;;;;23.30;18.53;;;-1.00;99.90;;;;;;4974092;28;20453;-70
2022/02/12 07:41:48;;;;;;;24.90;19.80;;;-0.90;99.90;;;;;;4969746;28;20472;-71
2022/02/12 07:44:14;;;;;;;30.40;20.00;;;-0.90;99.90;;;;;;4973343;28;20460;-70
2022/02/12 07:46:43;;;;;;;21.20;19.00;;;-0.80;99.90;;;;;;4973031;28;20491;-71
2022/02/12 07:49:09;;;;;;;25.33;19.73;;;-0.80;99.90;;;;;;4974918;28;20473;-71
2022/02/12 07:51:37;;;;;;;22.93;20.53;;;-0.80;99.90;;;;;;4973904;28;20817;-70
2022/02/12 07:54:04;;;;;;;27.43;20.67;;;-0.70;99.90;;;;;;4973561;28;20571;-71
2022/02/12 07:56:31;;;;;;;25.77;21.60;;;-0.60;99.90;;;;;;4975031;28;20499;-70
2022/02/12 07:58:58;;;;;;;22.33;19.97;;;-0.60;99.90;;;;;;4973823;28;20828;-70
2022/02/12 08:01:25;;;;;;;23.33;20.70;;;-0.60;99.90;;;;;;4977403;28;20473;-70
2022/02/12 08:03:54;;;;;;;24.47;21.13;;;-0.50;99.90;;;;;;4992666;28;20468;-70
2022/02/12 08:09:06;;;;;;;20.87;19.37;;;-0.40;99.90;;;;;;4976381;28;20935;-71
2022/02/12 08:11:34;;;;;;;22.80;19.67;;;-0.40;99.90;;;;;;4975960;28;20469;-70
2022/02/12 08:14:01;;;;;;;21.60;19.77;;;-0.30;99.90;;;;;;4977009;28;20505;-70
2022/02/12 08:16:27;;;;;;;23.57;21.17;;;-0.30;99.90;;;;;;4976202;28;20560;-70
2022/02/12 08:18:56;;;;;;;23.53;20.87;;;-0.20;99.90;;;;;;4977037;28;20482;-71
2022/02/12 08:21:23;;;;;;;31.17;21.10;;;-0.10;99.90;;;;;;4977941;28;20825;-70
2022/02/12 08:23:49;;;;;;;30.87;20.40;;;-0.10;99.90;;;;;;4977170;28;20476;-71
2022/02/12 08:26:16;;;;;;;22.83;20.93;;;0.00;99.90;;;;;;4977180;28;21225;-70
2022/02/12 08:28:43;;;;;;;27.97;21.40;;;0.10;99.90;;;;;;4977563;28;20475;-70
2022/02/12 08:31:10;;;;;;;22.80;20.67;;;0.10;99.90;;;;;;4974501;28;21114;-71
2022/02/12 08:33:37;;;;;;;28.50;21.07;;;0.10;99.90;;;;;;4976479;28;20899;-70
2022/02/12 08:36:06;;;;;;;33.67;20.97;;;0.10;99.90;;;;;;4975841;28;20816;-71
2022/02/12 08:38:33;;;;;;;21.47;19.67;;;0.20;99.90;;;;;;4978500;28;20468;-70
2022/02/12 08:41:00;;;;;;;26.43;20.00;;;0.20;99.90;;;;;;4975654;28;20486;-70
2022/02/12 08:43:27;;;;;;;23.43;20.33;;;0.30;99.90;;;;;;4977399;28;20457;-71
2022/02/12 08:45:54;;;;;;;23.60;21.30;;;0.30;99.90;;;;;;4978206;28;20462;-71
2022/02/12 08:48:21;;;;;;;32.27;22.00;;;0.40;99.90;;;;;;4977303;28;20512;-71
2022/02/12 08:50:48;;;;;;;25.03;21.13;;;0.40;99.90;;;;;;4994090;28;20465;-70
2022/02/12 08:53:17;;;;;;;32.10;22.90;;;0.50;99.90;;;;;;4987740;28;20465;-70
2022/02/12 08:55:46;;;;;;;24.60;22.00;;;0.60;99.90;;;;;;4975248;28;20468;-70
2022/02/12 08:58:12;;;;;;;25.27;22.50;;;0.70;99.90;;;;;;4983601;28;20469;-71
2022/02/12 09:00:39;;;;;;;25.20;22.80;;;0.70;99.90;;;;;;5002497;28;21066;-70
2022/02/12 09:03:06;;;;;;;27.70;23.07;;;0.80;99.90;;;;;;4996516;28;20476;-70
2022/02/12 09:05:33;;;;;;;24.27;22.10;;;0.80;99.90;;;;;;4978346;28;20492;-70
2022/02/12 09:08:00;;;;;;;27.40;23.97;;;0.80;99.90;;;;;;4974881;28;20509;-71
2022/02/12 09:10:28;;;;;;;25.60;22.80;;;0.90;99.90;;;;;;4975959;28;20537;-70
2022/02/12 09:12:56;;;;;;;25.53;23.00;;;0.90;99.90;;;;;;4975571;28;20480;-71
2022/02/12 09:15:23;;;;;;;25.20;22.57;;;0.90;99.90;;;;;;4975916;28;20499;-70
2022/02/12 09:17:50;;;;;;;27.93;22.83;;;1.00;99.90;;;;;;4976929;28;20468;-71
2022/02/12 09:20:17;;;;;;;25.47;21.73;;;1.00;99.90;;;;;;4975108;28;20747;-71
2022/02/12 09:22:43;;;;;;;25.50;23.00;;;1.10;99.90;;;;;;4975480;28;20468;-71
2022/02/12 09:25:10;;;;;;;29.40;23.67;;;1.10;99.90;;;;;;4976788;28;20475;-71
2022/02/12 09:27:39;;;;;;;34.77;23.77;;;1.20;99.90;;;;;;4973960;28;20497;-71
2022/02/12 09:30:07;;;;;;;31.23;23.77;;;1.30;99.90;;;;;;4978421;28;20465;-71
2022/02/12 09:32:34;;;;;;;26.07;23.57;;;1.40;99.90;;;;;;4975461;28;20487;-72
2022/02/12 09:35:01;;;;;;;26.10;23.43;;;1.40;99.90;;;;;;4975921;28;20501;-72
2022/02/12 09:37:28;;;;;;;25.53;22.70;;;1.50;99.90;;;;;;4976385;28;20478;-71
2022/02/12 09:39:55;;;;;;;26.37;23.60;;;1.50;99.90;;;;;;4975338;28;20561;-71
2022/02/12 09:42:22;;;;;;;32.90;24.20;;;1.60;99.90;;;;;;4973274;28;20898;-71
2022/02/12 09:44:50;;;;;;;28.30;23.60;;;1.60;99.90;;;;;;4972594;28;21738;-71
2022/02/12 09:47:44;;;;;;;26.73;23.93;;;1.70;99.90;;;;;;4976287;28;20537;-71
2022/02/12 09:50:11;;;;;;;26.47;22.90;;;1.80;99.90;;;;;;4979789;28;20453;-71
2022/02/12 09:52:41;;;;;;;29.23;23.43;;;1.70;99.90;;;;;;4976186;28;20991;-70
2022/02/12 09:55:09;;;;;;;27.17;24.30;;;1.70;99.90;;;;;;4975247;28;21006;-71
2022/02/12 09:57:36;;;;;;;37.23;25.10;;;1.70;99.90;;;;;;4975310;28;20537;-71
2022/02/12 10:00:11;;;;;;;30.80;24.33;;;1.70;99.90;;;;;;4975526;28;20468;-72
2022/02/12 10:02:38;;;;;;;26.33;23.70;;;1.80;99.90;;;;;;4974980;28;20476;-71
2022/02/12 10:05:24;;;;;;;31.80;24.23;;;1.80;99.90;;;;;;4975073;28;20600;-70
2022/02/12 10:07:52;;;;;;;27.30;24.53;;;1.90;99.90;;;;;;4975563;28;20605;-70
2022/02/12 10:10:20;;;;;;;33.50;23.87;;;1.90;99.90;;;;;;4973868;28;21001;-71
2022/02/12 10:12:48;;;;;;;41.73;24.50;;;1.90;99.90;;;;;;4974723;28;20886;-70
2022/02/12 10:15:27;;;;;;;30.70;24.67;;;2.00;99.90;;;;;;4972511;28;20500;-71
2022/02/12 10:17:56;;;;;;;28.63;22.50;;;2.10;99.90;;;;;;4974790;28;21177;-71
2022/02/12 10:20:29;;;;;;;25.83;22.67;;;2.20;99.90;;;;;;4975710;28;22239;-71
2022/02/12 10:23:09;;;;;;;33.13;22.77;;;2.30;99.90;;;;;;4975866;28;20508;-70
2022/02/12 10:25:37;;;;;;;25.47;22.77;;;2.30;99.90;;;;;;4975057;28;20557;-70
2022/02/12 10:28:05;;;;;;;26.80;23.90;;;2.40;99.90;;;;;;4975010;28;20607;-70
2022/02/12 10:30:34;;;;;;;26.33;21.83;;;2.50;99.90;;;;;;4974438;28;20468;-70
2022/02/12 10:33:03;;;;;;;26.47;21.90;;;2.60;99.90;;;;;;4974454;28;20463;-70
2022/02/12 10:35:31;;;;;;;23.33;20.53;;;2.70;99.90;;;;;;4975381;28;20544;-70
2022/02/12 10:38:00;;;;;;;29.27;21.60;;;2.80;99.90;;;;;;4975234;28;20965;-69
2022/02/12 10:40:28;;;;;;;24.23;21.90;;;3.00;99.90;;;;;;4974046;28;20908;-69
2022/02/12 10:42:56;;;;;;;24.60;22.00;;;3.20;99.90;;;;;;4973409;28;20480;-69
2022/02/12 10:45:26;;;;;;;28.37;21.97;;;3.50;99.90;;;;;;4976253;28;21068;-70
2022/02/12 10:47:57;;;;;;;33.30;22.20;;;4.10;99.90;;;;;;4975325;28;20504;-69
2022/02/12 10:50:26;;;;;;;22.40;19.87;;;4.90;99.90;;;;;;4974595;28;20473;-70
2022/02/12 10:52:56;;;;;;;22.43;19.90;;;5.50;99.90;;;;;;4974364;28;20457;-70
2022/02/12 10:55:31;;;;;;;25.73;19.20;;;6.00;99.90;;;;;;4975152;28;20473;-69
2022/02/12 10:58:00;;;;;;;20.30;18.60;;;6.50;99.90;;;;;;4975509;28;21194;-70
2022/02/12 11:00:29;;;;;;;21.03;19.13;;;6.70;99.90;;;;;;4974180;28;20463;-69
2022/02/12 11:02:59;;;;;;;20.60;18.57;;;6.80;99.90;;;;;;4974693;28;20474;-69
2022/02/12 11:05:28;;;;;;;22.03;17.80;;;7.40;99.90;;;;;;4974634;28;20470;-69
2022/02/12 11:07:55;;;;;;;20.03;17.97;;;7.30;99.90;;;;;;4974631;28;20613;-70
2022/02/12 11:10:23;;;;;;;30.00;18.40;;;7.10;99.90;;;;;;4974483;28;20473;-72
2022/02/12 11:12:50;;;;;;;24.30;18.87;;;7.40;99.90;;;;;;4975193;28;20554;-70
2022/02/12 11:15:17;;;;;;;26.03;18.27;;;7.80;99.90;;;;;;4974544;28;20501;-70
2022/02/12 11:17:47;;;;;;;27.90;18.50;;;7.60;99.90;;;;;;4974606;28;20468;-70
2022/02/12 11:20:16;;;;;;;20.27;17.60;;;7.90;99.90;;;;;;4974561;28;20475;-71
2022/02/12 11:22:43;;;;;;;20.10;17.70;;;7.90;99.90;;;;;;4974527;28;20514;-70
2022/02/12 11:25:36;;;;;;;19.50;17.50;;;8.50;99.90;;;;;;4975394;28;20476;-70
2022/02/12 11:28:11;;;;;;;19.67;17.90;;;8.50;99.90;;;;;;4969489;28;20498;-70
2022/02/12 11:30:39;;;;;;;19.90;17.70;;;9.00;99.90;;;;;;4992038;28;20985;-70
2022/02/12 11:33:20;;;;;;;21.57;17.83;;;9.10;99.90;;;;;;4997763;28;20971;-69
2022/02/12 11:36:21;;;;;;;18.33;16.87;;;8.60;99.90;;;;;;4974244;28;20464;-71
2022/02/12 11:38:48;;;;;;;18.90;16.90;;;8.50;99.90;;;;;;4972845;28;20472;-69
2022/02/12 11:41:23;;;;;;;18.47;16.67;;;8.60;99.90;;;;;;4974010;28;20468;-70
2022/02/12 11:43:50;;;;;;;20.77;17.57;;;9.60;99.90;;;;;;4974033;28;20599;-72
2022/02/12 11:46:44;;;;;;;24.37;16.40;;;10.00;99.90;;;;;;4976223;28;20487;-71
2022/02/12 11:49:35;;;;;;;18.40;16.60;;;10.70;99.90;;;;;;4976990;28;20496;-71
2022/02/12 11:52:07;;;;;;;18.63;16.70;;;10.30;99.90;;;;;;4965837;28;20455;-71
2022/02/12 11:54:57;;;;;;;20.60;18.50;;;10.20;99.90;;;;;;4977592;28;20466;-70
2022/02/12 11:57:45;;;;;;;18.20;16.80;;;9.90;99.90;;;;;;4976229;28;20511;-71
2022/02/12 12:00:35;;;;;;;19.23;17.30;;;10.10;99.90;;;;;;4977366;28;20489;-71
2022/02/12 12:03:09;;;;;;;25.20;18.37;;;9.50;99.90;;;;;;4977559;28;20465;-69
2022/02/12 12:05:37;;;;;;;30.00;17.27;;;9.80;99.90;;;;;;4976491;28;21112;-70
2022/02/12 12:08:15;;;;;;;18.10;16.67;;;9.90;99.90;;;;;;4977363;28;20871;-70
2022/02/12 12:11:11;;;;;;;19.13;17.50;;;10.10;99.90;;;;;;4977943;28;20464;-71
2022/02/12 12:13:42;;;;;;;19.20;17.60;;;10.60;99.90;;;;;;4976938;28;20995;-71
2022/02/12 12:16:33;;;;;;;23.80;19.40;;;10.80;99.90;;;;;;4977416;28;20993;-70
2022/02/12 12:19:02;;;;;;;19.53;17.63;;;10.70;99.90;;;;;;4976752;28;20473;-70
2022/02/12 12:21:31;;;;;;;19.70;17.30;;;10.80;99.90;;;;;;4975813;28;20462;-71
2022/02/12 12:24:01;;;;;;;19.77;18.10;;;10.20;99.90;;;;;;4977896;28;20476;-70
2022/02/12 12:26:41;;;;;;;21.73;17.07;;;10.30;99.90;;;;;;4977279;28;20479;-70
2022/02/12 12:31:54;;;;;;;22.70;17.20;;;10.50;99.90;;;;;;4976765;28;20951;-69
2022/02/12 12:34:21;;;;;;;18.97;17.20;;;10.50;99.90;;;;;;4977024;28;20512;-70
2022/02/12 12:36:47;;;;;;;20.20;16.90;;;10.60;99.90;;;;;;4975955;28;20757;-72
2022/02/12 12:39:15;;;;;;;20.47;16.50;;;11.00;99.90;;;;;;4976363;28;20471;-70
2022/02/12 12:41:43;;;;;;;19.37;17.47;;;10.90;99.90;;;;;;4975565;28;20465;-71
2022/02/12 12:44:12;;;;;;;19.63;17.80;;;11.10;99.90;;;;;;4976657;28;20474;-71
2022/02/12 12:46:40;;;;;;;19.73;17.90;;;11.10;99.90;;;;;;4976547;28;20468;-69
2022/02/12 12:49:09;;;;;;;19.40;17.33;;;11.20;99.90;;;;;;4976600;28;20609;-71